Time;durP1;ratioP1;P1;durP2;ratioP2;P2;SDS_P1;SDS_P2;PMS_P1;PMS_P2;Temp;Humidity;BMP_temperature;BMP_pressure;BME280_temperature;BME280_humidity;BME280_pressure;Samples;Min_cycle;Max_cycle;Signal;HPM_P1;HPM_P2
2021/12/21 00:00:42;;;;;;;4.88;2.80;;;;;;;18.41;36.03;102473.00;4900858;29;20448;-76
2021/12/21 00:03:08;;;;;;;4.75;2.78;;;;;;;18.40;36.13;102463.88;4900872;29;20043;-75
2021/12/21 00:05:35;;;;;;;4.63;2.65;;;;;;;18.44;36.02;102461.25;4900850;29;20156;-75
2021/12/21 00:08:03;;;;;;;6.40;3.28;;;;;;;18.29;36.34;102466.16;4900819;29;20025;-74
2021/12/21 00:10:31;;;;;;;5.75;2.53;;;;;;;18.39;35.89;102455.91;4900719;29;20048;-75
2021/12/21 00:15:51;;;;;;;8.40;3.33;;;;;;;18.36;35.99;102442.69;4901037;29;20073;-75
2021/12/21 00:23:44;;;;;;;6.30;2.90;;;;;;;18.43;35.83;102454.09;4901057;29;20064;-75
2021/12/21 00:26:15;;;;;;;9.15;3.30;;;;;;;18.46;35.68;102448.75;4900516;29;20097;-75
2021/12/21 00:28:58;;;;;;;4.25;3.00;;;;;;;18.36;35.79;102443.50;4900014;29;20024;-75
2021/12/21 00:31:25;;;;;;;5.00;3.50;;;;;;;18.39;35.88;102440.13;4900593;29;20520;-75
2021/12/21 00:33:52;;;;;;;4.72;3.00;;;;;;;18.21;36.18;102431.00;4900175;29;20039;-75
2021/12/21 00:36:20;;;;;;;3.88;2.95;;;;;;;18.26;35.97;102439.13;4900425;29;20029;-95
2021/12/21 00:38:47;;;;;;;3.47;2.97;;;;;;;18.30;35.91;102433.78;4900118;29;20032;-75
2021/12/21 00:41:13;;;;;;;6.25;3.63;;;;;;;18.40;35.82;102432.63;4900367;29;20040;-75
2021/12/21 00:43:39;;;;;;;4.60;2.95;;;;;;;18.44;35.66;102433.59;4900146;29;20032;-75
2021/12/21 00:46:04;;;;;;;5.60;3.28;;;;;;;18.37;35.71;102423.03;4900429;29;20036;-75
2021/12/21 00:48:33;;;;;;;4.40;3.28;;;;;;;18.31;35.89;102421.56;4900408;29;20417;-76
2021/12/21 00:51:01;;;;;;;5.05;3.33;;;;;;;18.38;35.71;102415.53;4900087;29;20044;-75
2021/12/21 00:53:27;;;;;;;6.82;3.20;;;;;;;18.34;35.79;102422.84;4900448;29;20480;-75
2021/12/21 00:55:54;;;;;;;4.88;3.58;;;;;;;18.26;35.93;102419.75;4902472;29;20020;-75
2021/12/21 00:58:20;;;;;;;4.65;3.35;;;;;;;18.23;35.72;102417.66;4900752;29;20032;-76
2021/12/21 01:00:46;;;;;;;4.85;3.53;;;;;;;18.38;35.55;102412.78;4900372;29;20036;-75
2021/12/21 01:03:14;;;;;;;3.80;3.03;;;;;;;18.29;35.71;102410.00;4900250;29;20029;-75
2021/12/21 01:08:10;;;;;;;4.57;2.90;;;;;;;18.16;35.66;102406.25;4901383;29;20040;-75
2021/12/21 01:13:27;;;;;;;4.97;3.28;;;;;;;18.18;35.77;102397.63;4900002;29;20139;-75
2021/12/21 01:16:39;;;;;;;6.95;2.38;;;;;;;18.00;36.16;102392.06;4899768;29;20392;-75
2021/12/21 01:18:59;;;;;;;5.45;3.67;;;;;;;18.08;35.85;102386.88;4894059;29;20084;-74
2021/12/21 01:21:30;;;;;;;3.92;2.63;;;;;;;18.14;35.81;102396.66;4899667;29;20111;-75
2021/12/21 01:26:50;;;;;;;4.65;2.80;;;;;;;18.13;35.72;102395.81;4899502;29;20032;-75
2021/12/21 01:29:46;;;;;;;5.05;2.88;;;;;;;18.21;35.69;102389.50;4899356;29;20029;-75
2021/12/21 01:32:56;;;;;;;5.05;3.28;;;;;;;18.26;35.59;102389.31;4899533;29;20367;-75
2021/12/21 01:35:22;;;;;;;4.13;3.00;;;;;;;18.16;35.86;102381.34;4897770;29;20048;-95
2021/12/21 01:38:07;;;;;;;5.28;3.17;;;;;;;18.24;35.98;102385.25;4900200;29;20032;-74
2021/12/21 01:40:48;;;;;;;6.10;3.50;;;;;;;18.14;36.01;102385.59;4899363;29;20108;-75
2021/12/21 01:51:37;;;;;;;3.33;2.60;;;;;;;18.18;36.01;102384.59;4899259;29;20063;-75
2021/12/21 01:54:03;;;;;;;4.60;3.35;;;;;;;18.17;35.93;102391.28;4900052;29;20108;-75
2021/12/21 01:56:29;;;;;;;4.35;2.60;;;;;;;18.11;36.08;102387.03;4899397;29;20028;-75
2021/12/21 01:58:55;;;;;;;4.85;3.22;;;;;;;18.16;36.06;102391.59;4898919;29;20032;-93
2021/12/21 02:01:24;;;;;;;4.90;3.40;;;;;;;18.09;36.12;102385.75;4899349;29;20476;-75
2021/12/21 02:03:50;;;;;;;4.60;2.78;;;;;;;18.07;36.25;102380.53;4898580;29;20028;-75
2021/12/21 02:06:21;;;;;;;4.60;3.35;;;;;;;18.09;36.09;102378.25;4898747;29;20167;-75
2021/12/21 02:08:48;;;;;;;6.03;3.55;;;;;;;18.08;36.09;102381.34;4881810;29;20025;-75
2021/12/21 02:11:15;;;;;;;4.80;3.10;;;;;;;18.01;35.96;102376.28;4898228;29;20171;-75
2021/12/21 02:13:44;;;;;;;4.75;3.42;;;;;;;18.09;35.95;102377.44;4898521;29;20028;-76
2021/12/21 02:16:10;;;;;;;4.13;3.05;;;;;;;17.85;36.20;102369.59;4897751;29;20020;-75
2021/12/21 02:21:46;;;;;;;4.68;3.70;;;;;;;18.02;35.78;102361.31;4876958;29;20484;-75
2021/12/21 02:24:17;;;;;;;5.20;3.38;;;;;;;18.07;35.80;102366.72;4898557;29;20135;-75
2021/12/21 02:29:18;;;;;;;3.97;3.17;;;;;;;17.97;36.01;102359.53;4898952;29;20033;-75
2021/12/21 02:31:49;;;;;;;5.22;3.60;;;;;;;18.06;35.66;102365.09;4898159;29;20032;-75
2021/12/21 02:34:16;;;;;;;4.70;3.20;;;;;;;18.02;35.84;102366.84;4882128;29;20029;-76
2021/12/21 02:36:44;;;;;;;4.25;3.40;;;;;;;17.98;35.89;102358.38;4898971;29;20049;-86
2021/12/21 02:39:10;;;;;;;5.70;3.25;;;;;;;17.78;35.98;102349.91;4897971;29;20033;-75
2021/12/21 02:41:37;;;;;;;4.43;3.60;;;;;;;17.82;35.86;102351.69;4897847;29;20025;-75
2021/12/21 02:44:03;;;;;;;4.85;3.85;;;;;;;17.78;35.93;102345.19;4897886;29;20115;-75
2021/12/21 02:46:29;;;;;;;4.80;3.00;;;;;;;17.91;35.93;102358.06;4898036;29;20024;-75
2021/12/21 02:48:55;;;;;;;4.25;3.17;;;;;;;17.80;36.04;102353.16;4901128;29;20025;-92
2021/12/21 02:51:20;;;;;;;5.15;3.90;;;;;;;17.83;35.93;102358.03;4898635;29;20419;-76
2021/12/21 02:53:46;;;;;;;4.75;3.33;;;;;;;17.87;36.02;102365.38;4897670;29;20111;-75
2021/12/21 02:56:13;;;;;;;5.15;4.32;;;;;;;17.83;36.01;102363.56;4878306;29;20400;-75
2021/12/21 02:58:39;;;;;;;4.85;3.53;;;;;;;17.94;35.75;102362.13;4879417;29;20064;-92
2021/12/21 03:01:07;;;;;;;5.38;4.07;;;;;;;17.97;35.95;102361.47;4880438;29;20040;-92
2021/12/21 03:03:33;;;;;;;6.30;4.13;;;;;;;18.02;35.81;102361.31;4879556;29;20104;-75
2021/12/21 03:06:01;;;;;;;8.57;4.47;;;;;;;17.84;36.12;102357.75;4879567;29;20032;-86
2021/12/21 03:08:41;;;;;;;4.70;3.67;;;;;;;17.62;36.71;102358.63;4878789;29;20040;-83
2021/12/21 03:11:22;;;;;;;5.07;4.40;;;;;;;17.87;36.09;102359.03;4879549;29;20036;-75
2021/12/21 03:14:03;;;;;;;7.07;4.30;;;;;;;17.91;35.70;102349.78;4879187;29;20041;-75
2021/12/21 03:16:31;;;;;;;6.53;3.95;;;;;;;17.91;36.05;102357.22;4878787;29;20040;-75
2021/12/21 03:18:57;;;;;;;6.80;4.80;;;;;;;17.90;36.13;102358.38;4879513;29;20732;-94
2021/12/21 03:21:23;;;;;;;6.15;4.18;;;;;;;18.08;35.85;102359.22;4879794;29;20052;-94
2021/12/21 03:23:49;;;;;;;5.47;4.47;;;;;;;18.06;35.66;102354.03;4878670;29;20069;-75
2021/12/21 03:26:14;;;;;;;6.47;4.45;;;;;;;17.92;35.88;102345.88;4879286;29;20401;-88
2021/12/21 03:28:40;;;;;;;6.28;4.90;;;;;;;18.00;35.87;102347.00;4882338;29;20029;-75
2021/12/21 03:31:06;;;;;;;5.15;4.13;;;;;;;17.98;35.87;102339.00;4881411;29;20068;-76
2021/12/21 03:33:33;;;;;;;5.68;4.00;;;;;;;17.97;35.79;102342.94;4881837;29;20028;-75
2021/12/21 03:36:04;;;;;;;6.13;4.88;;;;;;;17.79;35.98;102343.25;4881539;29;20085;-75
2021/12/21 03:38:30;;;;;;;5.75;4.82;;;;;;;17.86;36.01;102335.28;4872442;29;20051;-74
2021/12/21 03:41:02;;;;;;;5.65;4.70;;;;;;;17.97;35.86;102331.06;4881456;29;20101;-75
2021/12/21 03:43:32;;;;;;;12.85;4.97;;;;;;;18.03;35.87;102340.81;4883188;29;20021;-95
2021/12/21 03:46:08;;;;;;;6.30;4.28;;;;;;;18.07;35.89;102336.28;4883302;29;20059;-90
2021/12/21 03:48:35;;;;;;;7.15;5.38;;;;;;;18.07;35.78;102330.75;4882999;29;20021;-92
2021/12/21 03:51:01;;;;;;;6.70;5.03;;;;;;;18.06;36.06;102329.13;4882840;29;20044;-92
2021/12/21 03:53:28;;;;;;;8.13;5.15;;;;;;;18.06;35.99;102322.75;4883074;29;20116;-93
2021/12/21 03:56:08;;;;;;;6.43;5.05;;;;;;;18.03;35.90;102319.50;4882792;29;20477;-76
2021/12/21 03:58:33;;;;;;;;;;;;;;;17.88;36.12;102319.19;4883263;29;20108;-90
2021/12/21 04:00:59;;;;;;;5.40;4.53;;;;;;;17.95;36.25;102313.97;4881557;29;20034;-84
2021/12/21 04:03:25;;;;;;;6.60;5.45;;;;;;;18.02;36.01;102320.66;4898132;29;20400;-91
2021/12/21 04:05:50;;;;;;;10.05;4.82;;;;;;;18.05;36.08;102316.41;4882587;29;20476;-76
2021/12/21 04:08:16;;;;;;;6.72;5.05;;;;;;;18.07;35.92;102314.16;4872056;29;20029;-93
2021/12/21 04:10:42;;;;;;;11.02;5.25;;;;;;;18.00;36.20;102309.09;4881959;29;20059;-77
2021/12/21 04:13:10;;;;;;;6.63;5.35;;;;;;;18.03;36.24;102307.63;4878661;29;20077;-76
2021/12/21 04:15:42;;;;;;;7.82;5.00;;;;;;;17.97;36.25;102303.41;4880687;29;20044;-89
2021/12/21 04:18:12;;;;;;;12.38;5.43;;;;;;;18.00;36.16;102303.56;4880788;29;20049;-76
2021/12/21 04:20:38;;;;;;;5.95;4.88;;;;;;;18.01;36.20;102309.91;4880561;29;20028;-76
2021/12/21 04:23:05;;;;;;;6.57;5.40;;;;;;;18.09;36.24;102313.81;4879602;29;20029;-76
2021/12/21 04:25:31;;;;;;;6.78;5.28;;;;;;;18.08;36.17;102313.00;4882340;29;20028;-91
2021/12/21 04:27:57;;;;;;;8.50;5.75;;;;;;;18.06;36.25;102306.16;4880531;29;20029;-76
2021/12/21 04:30:22;;;;;;;6.65;5.30;;;;;;;18.18;35.97;102306.31;4881187;29;20082;-76
2021/12/21 04:32:48;;;;;;;7.32;4.90;;;;;;;18.13;35.82;102296.22;4881976;29;20044;-90
2021/12/21 04:35:18;;;;;;;6.57;5.30;;;;;;;17.95;36.49;102284.38;4882229;29;20500;-93
2021/12/21 04:37:48;;;;;;;6.35;5.47;;;;;;;18.07;36.03;102294.78;4881785;29;20422;-93
2021/12/21 04:40:17;;;;;;;6.38;4.97;;;;;;;18.16;35.91;102284.53;4872802;29;20032;-79
2021/12/21 04:42:43;;;;;;;7.57;5.70;;;;;;;18.13;36.01;102279.63;4878074;29;20541;-75
2021/12/21 04:45:09;;;;;;;9.60;5.40;;;;;;;18.13;36.21;102279.63;4879832;29;20025;-75
2021/12/21 04:47:34;;;;;;;9.32;5.93;;;;;;;17.93;36.59;102274.78;4880125;29;20032;-76
2021/12/21 04:50:00;;;;;;;8.05;5.57;;;;;;;17.95;36.24;102275.25;4879772;29;20513;-90
2021/12/21 04:52:25;;;;;;;6.22;4.82;;;;;;;17.85;36.40;102270.88;4879943;29;20477;-76
2021/12/21 04:54:51;;;;;;;7.60;5.53;;;;;;;18.02;36.25;102267.28;4879927;29;20108;-75
2021/12/21 04:57:16;;;;;;;7.00;5.53;;;;;;;18.11;35.96;102264.50;4879865;29;20025;-75
2021/12/21 04:59:42;;;;;;;8.18;5.60;;;;;;;17.96;36.16;102263.06;4879832;29;20021;-75
2021/12/21 05:02:07;;;;;;;6.88;5.10;;;;;;;18.00;36.19;102253.78;4879839;29;20040;-85
2021/12/21 05:04:35;;;;;;;7.43;5.32;;;;;;;18.04;36.12;102259.47;4879972;29;20033;-75
2021/12/21 05:07:00;;;;;;;11.35;6.05;;;;;;;18.06;36.04;102268.28;4879651;29;20029;-75
2021/12/21 05:09:29;;;;;;;6.18;4.20;;;;;;;17.96;36.16;102261.09;4880400;29;20032;-75
2021/12/21 05:12:04;;;;;;;6.22;4.38;;;;;;;18.00;36.19;102262.09;4880833;29;20025;-75
2021/12/21 05:14:29;;;;;;;7.53;5.28;;;;;;;17.85;36.08;102261.78;4880189;29;20083;-76
2021/12/21 05:16:55;;;;;;;6.22;4.95;;;;;;;17.82;36.16;102254.13;4879784;29;20527;-75
2021/12/21 05:19:21;;;;;;;6.32;4.47;;;;;;;17.89;35.86;102254.44;4879637;29;20017;-92
2021/12/21 05:21:46;;;;;;;11.68;4.68;;;;;;;17.88;35.95;102250.84;4880033;29;20061;-75
2021/12/21 05:24:12;;;;;;;5.50;4.75;;;;;;;17.93;35.84;102255.44;4879841;29;20021;-75
2021/12/21 05:26:37;;;;;;;6.85;4.88;;;;;;;17.62;36.30;102258.31;4879891;29;20393;-77
2021/12/21 05:29:04;;;;;;;5.95;4.72;;;;;;;17.69;36.12;102248.41;4879564;29;20028;-75
2021/12/21 05:31:29;;;;;;;7.00;4.30;;;;;;;17.63;36.33;102243.38;4879735;29;20108;-79
2021/12/21 05:33:55;;;;;;;7.93;4.97;;;;;;;17.54;36.42;102246.13;4879586;29;20124;-75
2021/12/21 05:36:21;;;;;;;5.00;4.40;;;;;;;17.47;36.44;102241.06;4879776;29;20025;-75
2021/12/21 05:38:54;;;;;;;7.35;4.63;;;;;;;17.64;36.13;102236.69;4880495;29;20037;-82
2021/12/21 05:41:30;;;;;;;7.25;5.10;;;;;;;17.66;36.03;102240.75;4880629;29;20033;-76
2021/12/21 05:43:57;;;;;;;8.27;4.95;;;;;;;17.63;36.18;102246.94;4881116;29;20029;-85
2021/12/21 05:46:22;;;;;;;7.07;5.20;;;;;;;17.68;35.98;102244.03;4899759;29;20060;-92
2021/12/21 05:48:51;;;;;;;11.80;5.72;;;;;;;17.61;36.26;102235.41;4898529;29;20531;-75
2021/12/21 05:51:18;;;;;;;5.90;4.85;;;;;;;17.57;36.28;102233.59;4899230;29;20571;-91
2021/12/21 05:53:44;;;;;;;7.18;5.70;;;;;;;17.71;36.00;102237.03;4898873;29;20032;-94
2021/12/21 05:56:10;;;;;;;7.90;5.15;;;;;;;17.68;36.15;102237.66;4898681;29;20528;-75
2021/12/21 05:58:35;;;;;;;10.82;5.45;;;;;;;17.61;36.31;102234.59;4899291;29;20036;-75
2021/12/21 06:01:02;;;;;;;6.88;4.78;;;;;;;17.78;35.99;102220.78;4898847;29;20032;-75
2021/12/21 06:03:27;;;;;;;6.32;4.78;;;;;;;17.72;36.01;102233.13;4899068;29;20494;-75
2021/12/21 06:05:53;;;;;;;5.10;4.30;;;;;;;17.70;36.12;102225.19;4898863;29;20029;-91
2021/12/21 06:08:21;;;;;;;6.13;5.07;;;;;;;17.79;35.84;102230.69;4898897;29;20028;-75
2021/12/21 06:10:49;;;;;;;7.28;4.90;;;;;;;17.78;35.80;102222.75;4882115;29;20037;-75
2021/12/21 06:27:08;;;;;;;5.93;4.57;;;;;;;17.45;36.74;102206.59;4898513;29;20184;-92
2021/12/21 06:29:34;;;;;;;5.50;4.80;;;;;;;17.60;36.19;102213.59;4898448;29;20116;-75
2021/12/21 06:32:00;;;;;;;7.35;5.03;;;;;;;17.47;36.41;102207.09;4898489;29;20067;-75
2021/12/21 06:34:26;;;;;;;7.03;5.00;;;;;;;17.52;36.52;102208.88;4897934;29;20587;-75
2021/12/21 06:36:51;;;;;;;6.60;4.80;;;;;;;17.52;36.52;102200.59;4897693;29;20071;-75
2021/12/21 06:39:17;;;;;;;7.43;5.18;;;;;;;17.42;36.76;102204.47;4898144;29;20056;-92
2021/12/21 06:41:43;;;;;;;7.38;4.53;;;;;;;17.50;36.66;102202.88;4898174;29;20076;-75
2021/12/21 06:44:10;;;;;;;6.30;4.60;;;;;;;17.50;36.45;102214.72;4898360;29;20036;-76
2021/12/21 06:51:53;;;;;;;10.65;5.05;;;;;;;17.46;36.31;102219.28;4898293;29;20040;-75
2021/12/21 06:54:20;;;;;;;6.25;4.60;;;;;;;17.57;35.78;102217.00;4897978;29;20476;-84
2021/12/21 06:56:45;;;;;;;6.55;4.85;;;;;;;17.50;36.54;102209.19;4898127;29;20425;-75
2021/12/21 06:59:11;;;;;;;9.55;4.88;;;;;;;17.52;36.06;102219.94;4898032;29;20076;-84
2021/12/21 07:01:38;;;;;;;6.32;5.03;;;;;;;17.47;36.12;102229.22;4897777;29;20467;-75
2021/12/21 07:04:10;;;;;;;6.35;4.72;;;;;;;17.25;36.58;102227.38;4897858;29;20036;-75
2021/12/21 07:06:38;;;;;;;5.90;5.30;;;;;;;17.40;36.38;102226.09;4898099;29;20084;-75
2021/12/21 07:09:13;;;;;;;7.05;5.30;;;;;;;17.48;36.18;102230.81;4897689;29;20052;-76
2021/12/21 07:11:45;;;;;;;6.63;4.75;;;;;;;17.42;36.53;102223.81;4898198;29;20036;-76
2021/12/21 07:19:41;;;;;;;6.28;5.00;;;;;;;17.40;36.90;102229.69;4898286;29;20067;-75
2021/12/21 07:22:07;;;;;;;10.93;6.35;;;;;;;17.61;36.37;102232.63;4881399;29;20037;-76
2021/12/21 07:24:33;;;;;;;7.43;5.95;;;;;;;17.52;36.92;102234.56;4897600;29;20056;-76
2021/12/21 07:26:58;;;;;;;9.25;5.85;;;;;;;17.53;36.91;102233.41;4897894;29;20046;-75
2021/12/21 07:29:24;;;;;;;8.90;6.43;;;;;;;17.49;36.91;102235.22;4897997;29;20032;-75
2021/12/21 07:31:50;;;;;;;8.02;6.22;;;;;;;17.60;36.73;102239.28;4897858;29;20036;-75
2021/12/21 07:34:16;;;;;;;6.82;6.10;;;;;;;17.70;36.38;102239.00;4898143;29;20051;-91
2021/12/21 07:36:46;;;;;;;6.75;5.47;;;;;;;17.79;36.28;102239.00;4897625;29;20385;-75
2021/12/21 07:39:14;;;;;;;7.70;5.40;;;;;;;17.68;36.44;102240.41;4897625;29;20100;-75
2021/12/21 07:41:41;;;;;;;23.98;9.07;;;;;;;17.78;36.18;102245.66;4897361;29;20028;-75
2021/12/21 07:44:07;;;;;;;8.60;6.05;;;;;;;17.71;36.47;102237.88;4880634;29;20048;-75
2021/12/21 07:46:33;;;;;;;6.00;5.30;;;;;;;17.64;36.36;102237.50;4897565;29;20032;-75
2021/12/21 07:48:59;;;;;;;11.23;6.97;;;;;;;17.61;36.35;102249.22;4897247;29;20037;-75
2021/12/21 07:51:25;;;;;;;9.43;6.70;;;;;;;17.62;36.28;102247.25;4886729;29;20055;-74
2021/12/21 07:53:51;;;;;;;7.82;4.95;;;;;;;17.48;36.87;102247.41;4878795;29;20039;-92
2021/12/21 07:56:17;;;;;;;7.38;5.53;;;;;;;17.57;36.64;102256.50;4898134;29;20029;-82
2021/12/21 07:58:45;;;;;;;7.93;4.93;;;;;;;17.52;36.75;102253.09;4881291;29;20532;-75
2021/12/21 08:01:11;;;;;;;9.13;5.28;;;;;;;17.52;36.58;102251.13;4897965;29;20107;-75
2021/12/21 08:03:37;;;;;;;9.65;6.15;;;;;;;17.54;36.71;102245.31;4882981;29;20036;-77
2021/12/21 08:06:06;;;;;;;6.95;5.78;;;;;;;17.54;36.77;102246.13;4876238;29;20120;-76
2021/12/21 08:08:34;;;;;;;10.20;6.32;;;;;;;17.53;36.77;102241.69;4862936;29;20111;-86
2021/12/21 08:13:36;;;;;;;11.35;5.72;;;;;;;17.54;36.75;102254.41;4864311;29;20037;-75
2021/12/21 08:16:03;;;;;;;8.85;6.05;;;;;;;17.48;36.74;102250.97;4866820;29;20104;-75
2021/12/21 08:18:28;;;;;;;7.68;6.68;;;;;;;17.49;36.81;102262.84;4879473;29;20392;-75
2021/12/21 08:20:55;;;;;;;10.77;6.75;;;;;;;17.51;36.83;102268.03;4882000;29;20033;-75
2021/12/21 08:23:22;;;;;;;11.52;6.78;;;;;;;17.50;36.88;102270.00;4882067;29;20037;-75
2021/12/21 08:25:49;;;;;;;18.45;6.75;;;;;;;17.45;36.87;102270.94;4900950;29;20495;-75
2021/12/21 08:28:15;;;;;;;12.60;7.78;;;;;;;17.44;36.58;102272.09;4879096;29;20494;-76
2021/12/21 08:30:41;;;;;;;12.13;7.00;;;;;;;17.35;36.81;102276.78;4866355;29;20526;-75
2021/12/21 08:33:07;;;;;;;10.60;7.18;;;;;;;17.42;36.85;102268.03;4866417;29;20045;-75
2021/12/21 08:35:33;;;;;;;13.95;7.13;;;;;;;17.54;36.73;102278.47;4867292;29;20029;-77
2021/12/21 08:38:04;;;;;;;17.88;8.85;;;;;;;17.50;37.00;102278.28;4865972;29;20044;-75
2021/12/21 08:40:37;;;;;;;13.18;7.95;;;;;;;17.48;36.74;102275.84;4865978;29;20115;-76
2021/12/21 08:43:05;;;;;;;12.85;7.65;;;;;;;17.35;37.11;102276.78;4865829;29;20505;-75
2021/12/21 08:45:33;;;;;;;10.50;7.43;;;;;;;17.39;37.17;102279.75;4864322;29;20025;-75
2021/12/21 08:47:59;;;;;;;12.38;7.50;;;;;;;17.40;36.89;102284.94;4864127;29;20035;-76
2021/12/21 08:50:25;;;;;;;11.60;7.15;;;;;;;17.47;36.95;102281.72;4877512;29;20123;-90
2021/12/21 08:52:51;;;;;;;12.65;7.03;;;;;;;17.40;37.03;102275.84;4881097;29;20071;-75
2021/12/21 08:55:17;;;;;;;17.40;8.18;;;;;;;17.42;36.97;102281.84;4881556;29;20057;-85
2021/12/21 08:57:43;;;;;;;10.70;7.03;;;;;;;17.41;37.18;102271.94;4866999;29;20029;-75
2021/12/21 09:00:09;;;;;;;11.05;6.57;;;;;;;17.30;37.18;102273.38;4865583;29;20051;-75
2021/12/21 09:02:37;;;;;;;13.18;7.72;;;;;;;17.32;37.16;102269.16;4870393;29;21349;-76
2021/12/21 09:05:11;;;;;;;11.43;7.32;;;;;;;17.27;37.39;102268.50;4865083;29;20061;-79
2021/12/21 09:07:39;;;;;;;18.67;8.57;;;;;;;17.41;36.83;102255.38;4865110;29;20029;-82
2021/12/21 09:10:06;;;;;;;45.30;11.80;;;;;;;17.40;36.97;102273.88;4865375;29;20024;-76
2021/12/21 09:12:33;;;;;;;12.30;7.05;;;;;;;17.25;37.17;102270.78;4865461;29;20029;-75
2021/12/21 09:14:59;;;;;;;11.73;6.75;;;;;;;17.29;37.16;102268.97;4866628;29;20052;-75
2021/12/21 09:17:24;;;;;;;12.70;7.15;;;;;;;17.35;36.99;102262.97;4866345;29;20029;-75
2021/12/21 09:19:51;;;;;;;15.02;8.73;;;;;;;17.20;37.33;102263.44;4865957;29;20672;-75
2021/12/21 09:22:17;;;;;;;12.85;8.48;;;;;;;17.19;37.26;102264.56;4865406;29;21410;-82
2021/12/21 09:24:43;;;;;;;12.73;7.85;;;;;;;17.14;37.22;102265.53;4865396;29;20029;-75
2021/12/21 09:27:08;;;;;;;13.48;7.97;;;;;;;17.18;37.07;102261.00;4865938;29;20553;-75
2021/12/21 09:29:34;;;;;;;16.33;8.13;;;;;;;17.33;36.98;102258.94;4865443;29;20029;-75
2021/12/21 09:32:00;;;;;;;13.55;7.43;;;;;;;17.39;36.58;102261.22;4865141;29;20037;-75
2021/12/21 09:34:25;;;;;;;13.75;7.93;;;;;;;17.42;36.55;102254.22;4866006;29;20078;-75
2021/12/21 09:36:52;;;;;;;11.45;7.03;;;;;;;17.39;36.85;102258.47;4865784;29;20025;-75
2021/12/21 09:39:18;;;;;;;16.05;8.23;;;;;;;17.28;37.18;102253.53;4865114;29;20054;-75
2021/12/21 09:41:45;;;;;;;17.35;8.07;;;;;;;17.31;36.83;102256.50;4854450;29;20893;-75
2021/12/21 09:44:11;;;;;;;15.52;7.15;;;;;;;17.35;36.77;102260.22;4864114;29;20033;-74
2021/12/21 09:46:37;;;;;;;11.23;6.93;;;;;;;17.37;36.82;102262.66;4847799;29;20466;-75
2021/12/21 09:49:03;;;;;;;14.68;7.32;;;;;;;17.34;36.93;102261.34;4864715;29;20082;-75
2021/12/21 09:51:28;;;;;;;10.73;6.88;;;;;;;17.38;36.92;102261.50;4865066;29;20049;-75
2021/12/21 09:53:56;;;;;;;17.83;6.75;;;;;;;17.33;36.83;102265.25;4864077;29;20044;-74
2021/12/21 09:56:22;;;;;;;7.95;5.88;;;;;;;17.11;37.18;102276.41;4864329;29;20124;-74
2021/12/21 09:58:49;;;;;;;12.52;6.93;;;;;;;17.25;36.93;102273.53;4864544;29;20556;-74
2021/12/21 10:01:16;;;;;;;8.18;6.82;;;;;;;17.31;36.76;102272.25;4864289;29;20041;-73
2021/12/21 10:03:42;;;;;;;15.07;6.78;;;;;;;17.31;36.59;102269.50;4864461;29;20102;-74
2021/12/21 10:06:11;;;;;;;14.15;6.55;;;;;;;17.44;36.26;102271.28;4864317;29;20037;-74
2021/12/21 10:08:37;;;;;;;10.75;5.95;;;;;;;17.24;36.67;102263.63;4864972;29;20499;-75
2021/12/21 10:11:06;;;;;;;11.18;6.20;;;;;;;17.29;36.51;102271.75;4847981;29;20040;-76
2021/12/21 10:13:35;;;;;;;11.80;6.68;;;;;;;17.36;36.32;102277.59;4863948;29;20052;-75
2021/12/21 10:16:04;;;;;;;8.37;7.23;;;;;;;17.12;36.76;102278.84;4869701;29;20032;-84
2021/12/21 10:18:35;;;;;;;10.32;7.55;;;;;;;17.17;36.72;102277.91;4880332;29;20108;-74
2021/12/21 10:21:05;;;;;;;12.60;7.57;;;;;;;17.25;36.69;102282.63;4868162;29;20078;-74
2021/12/21 10:23:33;;;;;;;12.32;7.70;;;;;;;17.32;36.42;102271.13;4864328;29;20041;-74
2021/12/21 10:26:06;;;;;;;14.23;7.35;;;;;;;17.13;36.36;102274.94;4864150;29;20576;-86
2021/12/21 10:28:44;;;;;;;6.50;5.88;;;;;;;17.19;36.30;102265.38;4867455;29;20032;-92
2021/12/21 10:31:29;;;;;;;8.57;6.30;;;;;;;17.23;35.92;102267.50;4880049;29;20033;-75
2021/12/21 10:33:59;;;;;;;10.20;7.18;;;;;;;17.28;35.93;102265.41;4870044;29;20044;-74
2021/12/21 10:36:26;;;;;;;12.38;6.53;;;;;;;17.25;36.25;102259.72;4864171;29;20061;-74
2021/12/21 10:38:56;;;;;;;11.90;6.32;;;;;;;17.27;36.08;102258.25;4870971;29;20412;-74
2021/12/21 10:41:33;;;;;;;16.00;5.95;;;;;;;17.19;36.12;102270.91;4880011;29;20033;-92
2021/12/21 10:44:00;;;;;;;8.85;6.28;;;;;;;17.22;36.46;102263.09;4879647;29;20103;-77
2021/12/21 10:46:28;;;;;;;10.23;6.13;;;;;;;17.29;36.15;102263.44;4871127;29;20077;-77
2021/12/21 10:49:09;;;;;;;12.32;7.80;;;;;;;17.26;36.10;102269.63;4876807;29;20105;-75
2021/12/21 10:51:35;;;;;;;22.38;7.60;;;;;;;17.20;36.41;102264.25;4861574;29;20048;-76
2021/12/21 10:54:02;;;;;;;9.75;6.28;;;;;;;17.21;36.18;102259.53;4860945;29;20036;-93
2021/12/21 10:56:27;;;;;;;15.05;6.70;;;;;;;17.20;36.14;102266.19;4861197;29;20389;-75
2021/12/21 10:58:53;;;;;;;15.40;6.30;;;;;;;17.26;36.11;102264.09;4860678;29;20029;-75
2021/12/21 11:01:27;;;;;;;15.70;7.05;;;;;;;17.21;36.10;102254.00;4860811;29;20033;-75
2021/12/21 11:03:55;;;;;;;10.80;6.18;;;;;;;17.32;35.83;102265.59;4860369;29;20040;-76
2021/12/21 11:06:31;;;;;;;19.17;7.45;;;;;;;17.29;36.15;102257.94;4844133;29;20034;-75
2021/12/21 11:08:57;;;;;;;21.40;9.18;;;;;;;17.20;36.24;102250.44;4827291;29;20038;-75
2021/12/21 11:11:29;;;;;;;18.50;6.70;;;;;;;17.26;36.34;102248.34;4844475;29;20401;-75
2021/12/21 11:14:08;;;;;;;13.70;5.88;;;;;;;17.12;36.16;102254.00;4844120;29;20029;-76
2021/12/21 11:16:38;;;;;;;18.73;5.40;;;;;;;17.19;36.05;102239.72;4844118;29;20606;-75
2021/12/21 11:19:04;;;;;;;19.35;6.45;;;;;;;17.16;36.09;102240.38;4844219;29;20280;-77
2021/12/21 11:21:31;;;;;;;12.90;5.20;;;;;;;17.28;35.72;102242.50;4845670;29;20112;-75
2021/12/21 11:24:04;;;;;;;14.95;4.60;;;;;;;17.28;35.78;102239.72;4845509;29;20037;-75
2021/12/21 11:26:31;;;;;;;20.45;6.05;;;;;;;17.26;35.73;102233.72;4844687;29;20034;-75
2021/12/21 11:29:01;;;;;;;9.57;4.28;;;;;;;17.12;36.03;102231.09;4845662;29;20037;-75
2021/12/21 11:31:27;;;;;;;13.50;5.90;;;;;;;17.20;35.72;102233.06;4844817;29;20029;-75
2021/12/21 11:33:57;;;;;;;10.50;6.28;;;;;;;17.17;35.80;102225.41;4844801;29;20052;-75
2021/12/21 11:39:08;;;;;;;16.05;6.18;;;;;;;17.11;35.81;102230.28;4844646;29;19977;-86
2021/12/21 11:41:36;;;;;;;15.00;5.72;;;;;;;17.16;35.79;102227.38;4850985;29;20392;-75
2021/12/21 11:44:40;;;;;;;22.33;7.20;;;;;;;17.04;36.12;102223.59;4845171;29;20217;-74
2021/12/21 11:47:12;;;;;;;20.13;7.93;;;;;;;17.19;35.75;102221.19;4845408;29;20040;-75
2021/12/21 11:49:55;;;;;;;21.95;8.57;;;;;;;17.16;36.05;102212.75;4831870;29;20053;-83
2021/12/21 11:52:23;;;;;;;10.77;5.65;;;;;;;17.29;35.91;102210.97;4848315;29;20116;-76
2021/12/21 11:54:52;;;;;;;11.13;5.85;;;;;;;17.25;36.13;102210.81;4848602;29;20089;-75
2021/12/21 11:57:21;;;;;;;12.93;6.13;;;;;;;17.30;35.94;102213.41;4859515;29;20162;-82
2021/12/21 11:59:49;;;;;;;15.65;6.85;;;;;;;17.21;36.22;102212.56;4863971;29;20115;-91
2021/12/21 12:02:25;;;;;;;12.88;5.72;;;;;;;17.09;36.45;102210.47;4859046;29;20033;-75
2021/12/21 12:04:56;;;;;;;12.98;5.78;;;;;;;17.17;36.29;102204.13;4847734;29;20164;-75
2021/12/21 12:07:22;;;;;;;16.98;6.70;;;;;;;17.01;36.12;102202.97;4847731;29;20069;-75
2021/12/21 12:10:06;;;;;;;18.42;6.45;;;;;;;17.12;36.20;102204.28;4848307;29;20021;-75
2021/12/21 12:12:31;;;;;;;17.95;6.68;;;;;;;17.14;36.07;102201.19;4848033;29;20045;-75
2021/12/21 12:15:03;;;;;;;13.20;5.25;;;;;;;17.10;36.34;102203.78;4861213;29;20025;-87
2021/12/21 12:17:30;;;;;;;15.85;6.20;;;;;;;17.07;36.10;102187.03;4863558;29;20037;-76
2021/12/21 12:20:05;;;;;;;21.90;6.43;;;;;;;17.07;36.12;102190.63;4850215;29;20629;-76
2021/12/21 12:22:33;;;;;;;13.10;4.80;;;;;;;17.02;36.15;102176.97;4847538;29;20033;-86
2021/12/21 12:24:59;;;;;;;11.95;5.30;;;;;;;17.02;36.31;102178.94;4847882;29;20511;-75
2021/12/21 12:27:28;;;;;;;11.02;4.55;;;;;;;17.13;36.10;102177.47;4847964;29;20050;-75